createdAt,value
2018-03-22T00:01:16.589Z,9.77
2018-03-22T00:03:44.162Z,10.13
2018-03-22T00:06:11.793Z,10.87
2018-03-22T00:08:39.312Z,9.37
2018-03-22T00:11:06.813Z,9.33
2018-03-22T00:13:34.334Z,9.50
2018-03-22T00:16:01.825Z,9.47
2018-03-22T00:18:29.325Z,8.73
2018-03-22T00:20:56.840Z,7.70
2018-03-22T00:23:24.337Z,8.63
2018-03-22T00:25:52.140Z,12.43
2018-03-22T00:28:19.646Z,7.83
2018-03-22T00:30:47.216Z,9.50
2018-03-22T00:33:14.820Z,12.40
2018-03-22T00:35:42.332Z,8.93
2018-03-22T00:38:09.872Z,10.23
2018-03-22T00:40:37.383Z,7.47
2018-03-22T00:43:04.887Z,8.03
2018-03-22T00:45:32.400Z,8.57
2018-03-22T00:47:59.882Z,7.73
2018-03-22T00:50:27.392Z,9.10
2018-03-22T00:52:54.892Z,8.37
2018-03-22T00:55:22.479Z,9.00
2018-03-22T00:57:49.978Z,12.93
2018-03-22T01:00:17.507Z,11.10
2018-03-22T01:02:45.045Z,10.27
2018-03-22T01:05:12.592Z,12.00
2018-03-22T01:07:40.092Z,10.00
2018-03-22T01:10:07.610Z,12.57
2018-03-22T01:12:35.191Z,11.83
2018-03-22T01:15:02.872Z,11.43
2018-03-22T01:17:30.428Z,10.13
2018-03-22T01:19:57.976Z,14.77
2018-03-22T01:22:25.499Z,15.97
2018-03-22T01:24:53.071Z,9.93
2018-03-22T01:27:20.660Z,10.80
2018-03-22T01:29:48.159Z,11.27
2018-03-22T01:32:15.860Z,11.37
2018-03-22T01:34:43.434Z,10.60
2018-03-22T01:37:10.959Z,13.77
2018-03-22T01:39:38.448Z,11.03
2018-03-22T01:42:06.020Z,11.23
2018-03-22T01:44:33.593Z,11.53
2018-03-22T01:47:01.138Z,10.17
2018-03-22T01:49:28.692Z,10.43
2018-03-22T01:51:56.212Z,11.57
2018-03-22T01:54:23.706Z,10.63
2018-03-22T01:56:51.235Z,11.17
2018-03-22T01:59:18.748Z,9.70
2018-03-22T02:01:46.333Z,10.20
2018-03-22T02:04:13.841Z,11.93
2018-03-22T02:06:41.360Z,11.70
2018-03-22T02:09:08.888Z,11.00
2018-03-22T02:11:36.420Z,13.60
2018-03-22T02:14:03.923Z,14.47
2018-03-22T02:16:31.447Z,12.10
2018-03-22T02:18:58.951Z,10.90
2018-03-22T02:21:26.664Z,12.87
2018-03-22T02:23:54.155Z,13.70
2018-03-22T02:26:21.690Z,11.73
2018-03-22T02:28:49.204Z,14.03
2018-03-22T02:31:16.699Z,12.10
2018-03-22T02:33:44.261Z,11.27
2018-03-22T02:36:11.935Z,11.07
2018-03-22T02:38:39.452Z,13.07
2018-03-22T02:41:07.036Z,11.33
2018-03-22T02:43:34.555Z,12.57
2018-03-22T02:46:02.052Z,13.60
2018-03-22T02:48:29.685Z,15.40
2018-03-22T02:50:57.345Z,11.50
2018-03-22T02:53:24.875Z,14.77
2018-03-22T02:55:52.447Z,10.90
2018-03-22T02:58:19.986Z,17.40
2018-03-22T03:00:47.488Z,14.13
2018-03-22T03:03:15.008Z,11.67
2018-03-22T03:05:42.504Z,16.07
2018-03-22T03:08:10.087Z,12.17
2018-03-22T03:10:37.666Z,12.57
2018-03-22T03:13:05.189Z,11.90
2018-03-22T03:15:32.692Z,8.83
2018-03-22T03:18:00.236Z,9.47
2018-03-22T03:20:27.743Z,13.63
2018-03-22T03:22:55.267Z,10.33
2018-03-22T03:25:22.760Z,11.37
2018-03-22T03:27:50.263Z,14.77
2018-03-22T03:30:17.855Z,9.90
2018-03-22T03:32:45.348Z,9.70
2018-03-22T03:35:12.896Z,10.17
2018-03-22T03:37:40.404Z,12.50
2018-03-22T03:40:07.960Z,11.13
2018-03-22T03:42:35.487Z,12.87
2018-03-22T03:45:03.020Z,10.50
2018-03-22T03:47:30.517Z,22.70
2018-03-22T03:49:58.040Z,11.20
2018-03-22T03:52:25.532Z,13.00
2018-03-22T03:54:53.092Z,12.27
2018-03-22T03:57:20.586Z,13.13
2018-03-22T03:59:48.124Z,10.60
2018-03-22T04:02:21.090Z,10.43
2018-03-22T04:04:48.612Z,11.73
2018-03-22T04:07:16.198Z,12.40
2018-03-22T04:09:43.737Z,10.40
2018-03-22T04:12:11.256Z,11.20
2018-03-22T04:14:38.783Z,11.93
2018-03-22T04:17:06.275Z,11.57
2018-03-22T04:19:33.788Z,11.63
2018-03-22T04:22:01.295Z,10.77
2018-03-22T04:24:29.812Z,9.27
2018-03-22T04:26:57.299Z,10.10
2018-03-22T04:29:24.867Z,11.23
2018-03-22T04:31:52.559Z,11.93
2018-03-22T04:34:20.103Z,9.77
2018-03-22T04:36:47.669Z,13.93
2018-03-22T04:39:15.221Z,11.87
2018-03-22T04:41:42.744Z,12.83
2018-03-22T04:44:10.231Z,8.43
2018-03-22T04:46:37.812Z,12.50
2018-03-22T04:49:05.362Z,11.77
2018-03-22T04:51:32.876Z,10.60
2018-03-22T04:54:00.478Z,11.63
2018-03-22T04:56:27.992Z,11.57
2018-03-22T04:58:55.501Z,9.37
2018-03-22T05:01:23.056Z,12.17
2018-03-22T05:03:50.551Z,12.43
2018-03-22T05:06:18.177Z,11.20
2018-03-22T05:08:45.724Z,12.23
2018-03-22T05:11:13.259Z,8.80
2018-03-22T05:13:40.855Z,9.07
2018-03-22T05:16:08.371Z,10.50
2018-03-22T05:18:35.861Z,10.03
2018-03-22T05:21:03.371Z,10.83
2018-03-22T05:23:30.892Z,15.47
2018-03-22T05:25:58.417Z,14.80
2018-03-22T05:28:26.024Z,16.80
2018-03-22T05:30:53.544Z,14.03
2018-03-22T05:33:21.051Z,15.53
2018-03-22T05:35:48.592Z,13.57
2018-03-22T05:38:16.116Z,17.30
2018-03-22T05:40:43.616Z,14.17
2018-03-22T05:43:11.177Z,18.83
2018-03-22T05:45:38.770Z,17.37
2018-03-22T05:48:06.320Z,14.50
2018-03-22T05:50:33.847Z,13.13
2018-03-22T05:53:01.582Z,13.47
2018-03-22T05:55:29.136Z,13.90
2018-03-22T05:57:56.683Z,13.90
2018-03-22T06:00:24.187Z,14.73
2018-03-22T06:02:51.753Z,14.67
2018-03-22T06:05:19.248Z,13.90
2018-03-22T06:07:46.920Z,12.30
2018-03-22T06:10:14.419Z,11.30
2018-03-22T06:12:41.931Z,11.97
2018-03-22T06:15:09.428Z,10.80
2018-03-22T06:17:36.947Z,11.17
2018-03-22T06:20:04.443Z,13.07
2018-03-22T06:22:32.068Z,10.63
2018-03-22T06:24:59.588Z,10.27
2018-03-22T06:27:27.079Z,11.83
2018-03-22T06:29:54.596Z,12.33
2018-03-22T06:32:22.101Z,10.93
2018-03-22T06:34:49.659Z,12.83
2018-03-22T06:37:17.152Z,11.60
2018-03-22T06:39:44.672Z,13.57
2018-03-22T06:42:12.273Z,11.03
2018-03-22T06:44:39.813Z,11.87
2018-03-22T06:47:07.364Z,14.87
2018-03-22T06:49:34.887Z,10.07
2018-03-22T06:52:02.504Z,13.40
2018-03-22T06:54:30.031Z,10.00
2018-03-22T06:56:57.576Z,13.27
2018-03-22T06:59:25.104Z,10.97
2018-03-22T07:01:52.742Z,10.30
2018-03-22T07:04:20.264Z,11.67
2018-03-22T07:06:47.762Z,11.37
2018-03-22T07:09:15.391Z,10.70
2018-03-22T07:11:42.896Z,10.67
2018-03-22T07:14:10.419Z,14.43
2018-03-22T07:16:37.975Z,12.70
2018-03-22T07:19:05.496Z,10.10
2018-03-22T07:21:33.001Z,11.13
2018-03-22T07:24:00.491Z,12.83
2018-03-22T07:26:28.112Z,10.20
2018-03-22T07:28:55.608Z,11.50
2018-03-22T07:31:23.127Z,8.23
2018-03-22T07:33:50.616Z,9.97
2018-03-22T07:36:18.133Z,8.13
2018-03-22T07:38:45.632Z,11.03
2018-03-22T07:41:13.177Z,11.37
2018-03-22T07:43:42.791Z,11.80
2018-03-22T07:46:10.627Z,8.33
2018-03-22T07:48:38.116Z,7.33
2018-03-22T07:51:06.569Z,8.70
2018-03-22T07:53:34.057Z,9.53
2018-03-22T07:56:01.632Z,8.80
2018-03-22T07:58:29.136Z,8.83
2018-03-22T08:00:56.647Z,8.30
2018-03-22T08:03:24.186Z,11.47
2018-03-22T08:05:51.808Z,7.97
2018-03-22T08:08:19.319Z,10.87
2018-03-22T08:10:46.843Z,8.30
2018-03-22T08:13:14.346Z,12.53
2018-03-22T08:15:41.868Z,16.60
2018-03-22T08:18:09.366Z,13.50
2018-03-22T08:20:36.897Z,10.87
2018-03-22T08:23:04.412Z,9.33
2018-03-22T08:25:31.944Z,9.73
2018-03-22T08:27:59.449Z,10.57
2018-03-22T08:30:27.024Z,8.70
2018-03-22T08:32:54.533Z,8.40
2018-03-22T08:35:22.061Z,10.23
2018-03-22T08:37:49.607Z,8.60
2018-03-22T08:40:17.095Z,7.93
2018-03-22T08:42:45.455Z,10.53
2018-03-22T08:45:13.023Z,9.40
2018-03-22T08:47:40.558Z,10.03
2018-03-22T08:50:08.117Z,10.13
2018-03-22T08:52:35.637Z,9.80
2018-03-22T08:55:03.131Z,11.10
2018-03-22T08:57:30.648Z,9.63
2018-03-22T08:59:58.260Z,10.03
2018-03-22T09:02:25.776Z,9.00
2018-03-22T09:04:53.432Z,9.13
2018-03-22T09:07:20.956Z,8.47
2018-03-22T09:09:48.489Z,11.97
2018-03-22T09:12:16.020Z,10.00
2018-03-22T09:14:43.574Z,9.77
2018-03-22T09:17:11.106Z,10.37
2018-03-22T09:19:38.596Z,8.70
2018-03-22T09:22:06.135Z,10.40
2018-03-22T09:24:33.624Z,9.30
2018-03-22T09:27:05.994Z,10.77
2018-03-22T09:29:33.483Z,9.20
2018-03-22T09:32:01.056Z,10.97
2018-03-22T09:34:28.568Z,11.47
2018-03-22T09:36:56.166Z,12.77
2018-03-22T09:39:23.661Z,8.87
2018-03-22T09:41:51.190Z,8.83
2018-03-22T09:44:18.727Z,13.40
2018-03-22T09:46:46.233Z,11.40
2018-03-22T09:49:13.783Z,13.17
2018-03-22T09:51:41.303Z,11.30
2018-03-22T09:54:08.864Z,8.00
2018-03-22T09:56:37.325Z,8.80
2018-03-22T09:59:04.900Z,13.47
2018-03-22T10:01:32.392Z,10.87
2018-03-22T10:04:00.774Z,9.23
2018-03-22T10:06:28.351Z,9.17
2018-03-22T10:08:55.840Z,9.47
2018-03-22T10:11:23.371Z,11.10
2018-03-22T10:13:50.988Z,8.20
2018-03-22T10:16:18.598Z,10.33
2018-03-22T10:18:46.140Z,10.03
2018-03-22T10:21:13.676Z,9.63
2018-03-22T10:23:41.454Z,10.67
2018-03-22T10:26:08.966Z,8.77
2018-03-22T10:28:36.767Z,8.17
2018-03-22T10:31:04.272Z,9.50
2018-03-22T10:33:31.792Z,10.37
2018-03-22T10:35:59.311Z,9.00
2018-03-22T10:38:27.104Z,10.30
2018-03-22T10:40:54.621Z,10.47
2018-03-22T10:43:22.216Z,11.50
2018-03-22T10:45:49.737Z,7.90
2018-03-22T10:48:17.247Z,7.40
2018-03-22T10:50:44.800Z,7.40
2018-03-22T10:53:12.335Z,6.77
2018-03-22T10:55:39.948Z,8.63
2018-03-22T10:58:07.501Z,6.80
2018-03-22T11:00:37.868Z,7.37
2018-03-22T11:03:10.967Z,8.00
2018-03-22T11:05:38.555Z,7.23
2018-03-22T11:08:06.092Z,6.87
2018-03-22T11:10:33.620Z,9.30
2018-03-22T11:13:01.140Z,8.27
2018-03-22T11:15:28.664Z,7.10
2018-03-22T11:17:56.172Z,7.20
2018-03-22T11:20:23.704Z,6.10
2018-03-22T11:22:51.199Z,6.30
2018-03-22T11:25:19.633Z,5.73
2018-03-22T11:27:47.124Z,8.37
2018-03-22T11:30:14.680Z,8.07
2018-03-22T11:32:42.325Z,6.40
2018-03-22T11:35:09.900Z,7.43
2018-03-22T11:37:37.405Z,7.83
2018-03-22T11:40:04.895Z,7.00
2018-03-22T11:42:32.462Z,7.30
2018-03-22T11:45:00.033Z,6.40
2018-03-22T11:47:27.572Z,6.00
2018-03-22T11:49:55.059Z,5.63
2018-03-22T11:52:22.595Z,6.20
2018-03-22T11:54:50.092Z,6.00
2018-03-22T11:57:17.620Z,6.83
2018-03-22T11:59:45.108Z,6.20
2018-03-22T12:02:12.645Z,5.40
2018-03-22T12:04:40.151Z,5.73
2018-03-22T12:07:07.755Z,8.30
2018-03-22T12:09:35.643Z,6.47
2018-03-22T12:12:03.184Z,4.87
2018-03-22T12:14:30.707Z,4.50
2018-03-22T12:16:58.227Z,7.73
2018-03-22T12:19:25.756Z,5.30
2018-03-22T12:21:53.282Z,5.53
2018-03-22T12:24:21.120Z,7.13
2018-03-22T12:26:48.780Z,4.83
2018-03-22T12:29:16.318Z,4.70
2018-03-22T12:31:44.170Z,4.90
2018-03-22T12:34:11.666Z,5.83
2018-03-22T12:36:39.179Z,5.97
2018-03-22T12:39:06.698Z,5.90
2018-03-22T12:41:34.218Z,6.47
2018-03-22T12:44:01.754Z,7.10
2018-03-22T12:46:29.257Z,6.00
2018-03-22T12:48:56.810Z,6.43
2018-03-22T12:51:24.336Z,7.27
2018-03-22T12:53:51.869Z,7.60
2018-03-22T12:56:19.371Z,8.87
2018-03-22T12:58:46.885Z,9.10
2018-03-22T13:01:14.383Z,9.33
2018-03-22T13:03:41.953Z,8.23
2018-03-22T13:06:09.456Z,8.93
2018-03-22T13:08:37.882Z,9.50
2018-03-22T13:11:05.411Z,9.80
2018-03-22T13:13:33.020Z,10.13
2018-03-22T13:16:00.535Z,11.97
2018-03-22T13:18:28.060Z,9.73
2018-03-22T13:20:55.566Z,9.37
2018-03-22T13:23:23.088Z,9.73
2018-03-22T13:25:50.662Z,11.40
2018-03-22T13:28:18.238Z,9.67
2018-03-22T13:30:45.732Z,15.40
2018-03-22T13:33:13.259Z,8.10
2018-03-22T13:35:40.798Z,12.27
2018-03-22T13:38:08.395Z,7.77
2018-03-22T13:40:35.884Z,9.97
2018-03-22T13:43:04.403Z,8.27
2018-03-22T13:45:32.124Z,10.07
2018-03-22T13:47:59.620Z,7.93
2018-03-22T13:50:27.215Z,11.77
2018-03-22T13:52:54.889Z,9.17
2018-03-22T13:55:22.417Z,11.87
2018-03-22T13:57:50.001Z,7.13
2018-03-22T14:00:17.532Z,12.00
2018-03-22T14:02:45.025Z,11.27
2018-03-22T14:05:12.553Z,13.80
2018-03-22T14:07:40.063Z,12.00
2018-03-22T14:10:07.702Z,17.13
2018-03-22T14:12:35.213Z,13.20
2018-03-22T14:15:02.733Z,12.57
2018-03-22T14:17:30.236Z,13.43
2018-03-22T14:19:57.757Z,14.07
2018-03-22T14:22:25.248Z,13.60
2018-03-22T14:24:52.800Z,15.70
2018-03-22T14:27:20.298Z,13.53
2018-03-22T14:29:47.861Z,15.80
2018-03-22T14:32:15.424Z,18.30
2018-03-22T14:34:42.942Z,15.73
2018-03-22T14:37:10.436Z,19.23
2018-03-22T14:39:37.955Z,17.10
2018-03-22T14:42:05.449Z,20.73
2018-03-22T14:44:32.967Z,18.47
2018-03-22T14:47:00.460Z,22.83
2018-03-22T14:49:27.959Z,20.13
2018-03-22T14:51:55.599Z,19.43
2018-03-22T14:54:23.095Z,22.63
2018-03-22T14:56:50.615Z,23.73
2018-03-22T14:59:18.180Z,19.00
2018-03-22T15:01:45.836Z,18.23
2018-03-22T15:04:13.339Z,17.03
2018-03-22T15:06:40.965Z,18.57
2018-03-22T15:09:08.559Z,18.80
2018-03-22T15:11:36.075Z,19.87
2018-03-22T15:14:03.576Z,17.60
2018-03-22T15:16:31.193Z,16.77
2018-03-22T15:18:58.689Z,16.67
2018-03-22T15:21:26.210Z,18.40
2018-03-22T15:23:53.768Z,18.93
2018-03-22T15:26:21.326Z,17.47
2018-03-22T15:28:48.820Z,16.07
2018-03-22T15:31:16.453Z,21.73
2018-03-22T15:33:44.003Z,16.73
2018-03-22T15:36:11.527Z,19.10
2018-03-22T15:38:39.016Z,18.53
2018-03-22T15:41:06.538Z,15.87
2018-03-22T15:43:34.081Z,18.60
2018-03-22T15:46:01.602Z,18.67
2018-03-22T15:48:29.095Z,22.00
2018-03-22T15:50:56.591Z,21.03
2018-03-22T15:53:24.106Z,19.30
2018-03-22T15:55:51.644Z,26.43
2018-03-22T15:58:19.164Z,19.73
2018-03-22T16:00:46.655Z,18.20
2018-03-22T16:03:14.183Z,18.17
2018-03-22T16:05:41.758Z,17.23
2018-03-22T16:08:09.275Z,17.13
2018-03-22T16:10:36.784Z,19.03
2018-03-22T16:13:04.354Z,17.40
2018-03-22T16:15:31.846Z,18.23
2018-03-22T16:17:59.370Z,15.57
2018-03-22T16:20:26.882Z,19.37
2018-03-22T16:22:54.485Z,17.43
2018-03-22T16:25:22.024Z,17.80
2018-03-22T16:27:49.598Z,18.30
2018-03-22T16:30:17.129Z,20.17
2018-03-22T16:32:44.744Z,19.97
2018-03-22T16:35:12.256Z,19.87
2018-03-22T16:37:39.781Z,16.30
2018-03-22T16:40:07.339Z,18.40
2018-03-22T16:42:34.922Z,19.50
2018-03-22T16:45:02.405Z,19.03
2018-03-22T16:47:29.928Z,17.43
2018-03-22T16:49:57.472Z,18.60
2018-03-22T16:52:25.952Z,19.73
2018-03-22T16:54:53.488Z,20.10
2018-03-22T16:57:20.990Z,17.43
2018-03-22T16:59:48.513Z,22.37
2018-03-22T17:02:16.037Z,20.77
2018-03-22T17:04:43.701Z,19.33
2018-03-22T17:07:12.194Z,20.27
2018-03-22T17:09:39.765Z,16.93
2018-03-22T17:12:07.257Z,17.47
2018-03-22T17:14:34.884Z,19.53
2018-03-22T17:17:02.448Z,20.60
2018-03-22T17:19:29.965Z,18.73
2018-03-22T17:21:57.464Z,18.97
2018-03-22T17:24:24.976Z,20.13
2018-03-22T17:26:52.769Z,23.93
2018-03-22T17:29:20.295Z,19.87
2018-03-22T17:31:47.792Z,18.00
2018-03-22T17:34:15.320Z,18.70
2018-03-22T17:36:42.820Z,21.00
2018-03-22T17:39:10.332Z,23.97
2018-03-22T17:41:37.831Z,18.13
2018-03-22T17:44:05.359Z,17.07
2018-03-22T17:46:32.854Z,20.10
2018-03-22T17:49:00.373Z,21.97
2018-03-22T17:51:27.897Z,19.63
2018-03-22T17:53:55.392Z,22.07
2018-03-22T17:56:22.919Z,17.63
2018-03-22T17:58:50.407Z,21.87
2018-03-22T18:01:17.930Z,23.93
2018-03-22T18:03:45.484Z,20.43
2018-03-22T18:06:13.006Z,24.57
2018-03-22T18:08:40.524Z,21.10
2018-03-22T18:11:08.108Z,32.93
2018-03-22T18:13:35.611Z,23.83
2018-03-22T18:16:03.134Z,24.80
2018-03-22T18:18:30.626Z,23.70
2018-03-22T18:20:58.149Z,23.87
2018-03-22T18:23:25.641Z,24.63
2018-03-22T18:25:53.217Z,20.37
2018-03-22T18:28:20.713Z,23.27
2018-03-22T18:30:49.095Z,23.50
2018-03-22T18:33:16.637Z,35.10
2018-03-22T18:35:44.183Z,29.77
2018-03-22T18:38:11.700Z,30.23
2018-03-22T18:40:39.234Z,18.47
2018-03-22T18:43:06.760Z,23.70
2018-03-22T18:45:34.291Z,23.07
2018-03-22T18:48:01.822Z,22.53
2018-03-22T18:50:29.403Z,23.93
2018-03-22T18:52:56.933Z,25.40
2018-03-22T18:55:24.460Z,24.37
2018-03-22T18:57:51.966Z,25.53
2018-03-22T19:00:19.463Z,41.00
2018-03-22T19:02:47.090Z,29.03
2018-03-22T19:05:14.576Z,42.47
2018-03-22T19:07:42.169Z,23.17
2018-03-22T19:10:09.754Z,26.87
2018-03-22T19:12:37.279Z,23.67
2018-03-22T19:15:04.789Z,41.07
2018-03-22T19:17:32.382Z,28.90
2018-03-22T19:19:59.907Z,24.20
2018-03-22T19:22:27.460Z,27.67
2018-03-22T19:24:54.968Z,26.87
2018-03-22T19:27:22.483Z,27.27
2018-03-22T19:29:50.017Z,27.80
2018-03-22T19:32:17.687Z,27.40
2018-03-22T19:34:45.258Z,29.57
2018-03-22T19:37:12.791Z,32.87
2018-03-22T19:39:40.364Z,26.13
2018-03-22T19:42:07.883Z,28.33
2018-03-22T19:44:35.384Z,27.87
2018-03-22T19:47:02.924Z,34.37
2018-03-22T19:49:30.529Z,30.93
2018-03-22T19:51:58.055Z,30.30
2018-03-22T19:54:25.559Z,27.43
2018-03-22T19:56:53.203Z,34.37
2018-03-22T19:59:20.756Z,32.67
2018-03-22T20:01:48.270Z,28.50
2018-03-22T20:04:15.767Z,41.37
2018-03-22T20:06:43.339Z,31.27
2018-03-22T20:09:10.880Z,29.43
2018-03-22T20:11:38.380Z,33.30
2018-03-22T20:14:05.891Z,27.77
2018-03-22T20:16:33.387Z,28.57
2018-03-22T20:19:00.926Z,30.17
2018-03-22T20:21:28.485Z,31.27
2018-03-22T20:23:56.023Z,30.77
2018-03-22T20:26:23.525Z,30.07
2018-03-22T20:28:51.152Z,28.93
2018-03-22T20:31:19.802Z,26.20
2018-03-22T20:33:47.396Z,30.63
2018-03-22T20:36:14.921Z,30.63
2018-03-22T20:38:42.439Z,29.93
2018-03-22T20:41:09.950Z,31.60
2018-03-22T20:43:37.536Z,32.23
2018-03-22T20:46:05.043Z,33.10
2018-03-22T20:48:32.568Z,29.97
2018-03-22T20:51:00.060Z,27.33
2018-03-22T20:53:27.581Z,31.23
2018-03-22T20:55:55.094Z,28.90
2018-03-22T20:58:22.608Z,28.67
2018-03-22T21:00:50.162Z,28.13
2018-03-22T21:03:17.688Z,30.27
2018-03-22T21:05:45.214Z,30.03
2018-03-22T21:08:12.809Z,27.83
2018-03-22T21:10:41.285Z,27.97
2018-03-22T21:13:08.781Z,26.43
2018-03-22T21:15:36.419Z,27.60
2018-03-22T21:18:03.912Z,31.30
2018-03-22T21:20:31.435Z,30.17
2018-03-22T21:22:58.956Z,27.10
2018-03-22T21:25:26.564Z,27.67
2018-03-22T21:27:54.076Z,28.67
2018-03-22T21:30:21.684Z,27.13
2018-03-22T21:32:49.184Z,29.80
2018-03-22T21:35:16.700Z,26.47
2018-03-22T21:37:44.191Z,26.73
2018-03-22T21:40:11.834Z,25.93
2018-03-22T21:42:39.333Z,25.83
2018-03-22T21:45:06.862Z,24.97
2018-03-22T21:47:34.376Z,23.43
2018-03-22T21:50:01.895Z,22.37
2018-03-22T21:52:41.385Z,22.67
2018-03-22T21:55:08.976Z,20.73
2018-03-22T21:57:36.514Z,25.13
2018-03-22T22:00:04.052Z,24.67
2018-03-22T22:02:33.554Z,28.17
2018-03-22T22:05:01.086Z,25.83
2018-03-22T22:07:28.604Z,27.57
2018-03-22T22:09:56.124Z,24.90
2018-03-22T22:12:23.641Z,26.10
2018-03-22T22:14:51.172Z,25.33
2018-03-22T22:17:18.735Z,23.27
2018-03-22T22:19:46.231Z,29.17
2018-03-22T22:22:13.775Z,22.63
2018-03-22T22:24:41.276Z,23.53
2018-03-22T22:27:08.804Z,24.07
2018-03-22T22:29:37.252Z,22.80
2018-03-22T22:32:04.772Z,23.73
2018-03-22T22:34:32.284Z,23.90
2018-03-22T22:36:59.820Z,24.33
2018-03-22T22:39:27.419Z,25.67
2018-03-22T22:41:54.954Z,25.87
2018-03-22T22:44:22.509Z,25.80
2018-03-22T22:46:50.076Z,24.03
2018-03-22T22:49:17.588Z,23.97
2018-03-22T22:51:45.192Z,21.43
2018-03-22T22:54:12.746Z,18.73
2018-03-22T22:56:40.304Z,21.67
2018-03-22T22:59:07.815Z,21.97
2018-03-22T23:01:35.338Z,21.47
2018-03-22T23:04:02.831Z,20.13
2018-03-22T23:06:30.349Z,17.57
2018-03-22T23:08:57.899Z,18.30
2018-03-22T23:11:25.411Z,19.13
2018-03-22T23:13:52.936Z,17.00
2018-03-22T23:16:20.455Z,18.77
2018-03-22T23:18:47.957Z,20.10
2018-03-22T23:21:15.496Z,18.60
2018-03-22T23:23:42.992Z,19.37
2018-03-22T23:26:10.504Z,17.60
2018-03-22T23:28:38.065Z,19.53
2018-03-22T23:31:05.590Z,20.37
2018-03-22T23:33:33.205Z,17.63
2018-03-22T23:36:00.743Z,16.30
2018-03-22T23:38:28.247Z,15.87
2018-03-22T23:40:55.830Z,16.10
2018-03-22T23:43:23.319Z,19.57
2018-03-22T23:45:50.883Z,18.20
2018-03-22T23:48:18.423Z,16.90
2018-03-22T23:50:45.938Z,16.93
2018-03-22T23:53:13.471Z,18.30
2018-03-22T23:55:41.019Z,16.87
2018-03-22T23:58:08.544Z,16.73
